Time;durP1;ratioP1;P1;durP2;ratioP2;P2;SDS_P1;SDS_P2;PMS_P1;PMS_P2;Temp;Humidity;BMP_temperature;BMP_pressure;BME280_temperature;BME280_humidity;BME280_pressure;Samples;Min_cycle;Max_cycle;Signal;HPM_P1;HPM_P2
2022/01/18 00:02:05;;;;;;;29.92;13.57;;;;;;;4.87;100.00;102686.28;4989559;28;20050;-61
2022/01/18 00:04:30;;;;;;;41.40;13.65;;;;;;;4.54;100.00;102650.34;4988594;28;20056;-61
2022/01/18 00:06:56;;;;;;;34.20;13.50;;;;;;;4.74;100.00;102702.63;4987899;28;20038;-61
2022/01/18 00:09:24;;;;;;;28.20;12.30;;;;;;;4.63;100.00;102722.47;4989451;28;20029;-61
2022/01/18 00:11:58;;;;;;;23.80;10.77;;;;;;;4.46;100.00;102709.25;4986266;28;20109;-61
2022/01/18 00:15:17;;;;;;;22.00;10.82;;;;;;;4.28;100.00;102708.16;4985263;28;20942;-61
2022/01/18 00:17:29;;;;;;;18.73;9.57;;;;;;;4.08;100.00;102706.19;4988942;28;20053;-61
2022/01/18 00:19:56;;;;;;;31.05;11.43;;;;;;;3.86;100.00;102678.13;4990964;28;20033;-61
2022/01/18 00:22:25;;;;;;;28.42;11.88;;;;;;;3.93;100.00;102721.56;4994149;28;20029;-61
2022/01/18 00:24:51;;;;;;;22.73;11.13;;;;;;;3.79;100.00;102712.69;4989614;28;20029;-61
2022/01/18 00:27:18;;;;;;;19.05;10.98;;;;;;;3.57;100.00;102695.03;4988772;28;20116;-61
2022/01/18 00:30:09;;;;;;;22.70;10.05;;;;;;;3.68;100.00;102723.78;4985243;28;20103;-61
2022/01/18 00:32:54;;;;;;;26.70;11.93;;;;;;;3.58;100.00;102727.97;4991024;28;20042;-61
2022/01/18 00:35:19;;;;;;;20.25;10.65;;;;;;;3.35;100.00;102718.91;4990881;28;20107;-61
2022/01/18 00:37:53;;;;;;;19.52;9.70;;;;;;;3.27;100.00;102715.31;4991122;28;20029;-61
2022/01/18 00:40:18;;;;;;;19.95;10.98;;;;;;;3.35;100.00;102734.50;4991207;28;20540;-61
2022/01/18 00:42:44;;;;;;;22.35;13.27;;;;;;;3.42;100.00;102737.22;4992495;28;20044;-61
2022/01/18 00:45:09;;;;;;;23.02;11.38;;;;;;;3.52;100.00;102733.91;4985654;28;20152;-61
2022/01/18 00:47:35;;;;;;;32.17;15.27;;;;;;;3.65;100.00;102734.97;4988049;28;20068;-62
2022/01/18 00:50:01;;;;;;;35.00;12.75;;;;;;;3.59;100.00;102707.19;4991703;28;20030;-61
2022/01/18 00:52:29;;;;;;;39.45;15.18;;;;;;;3.82;100.00;102733.53;4992264;28;20111;-61
2022/01/18 00:54:55;;;;;;;37.45;15.20;;;;;;;3.90;100.00;102736.25;4991130;28;20045;-61
2022/01/18 00:57:20;;;;;;;23.55;14.10;;;;;;;3.98;100.00;102734.63;4992105;28;20072;-61
2022/01/18 00:59:47;;;;;;;26.83;13.05;;;;;;;4.05;100.00;102742.56;4991835;28;20033;-61
2022/01/18 01:02:14;;;;;;;25.17;13.57;;;;;;;4.02;100.00;102726.88;4990761;28;20582;-61
2022/01/18 01:04:46;;;;;;;31.98;14.82;;;;;;;4.10;100.00;102740.88;4988226;28;20144;-61
2022/01/18 01:07:11;;;;;;;36.58;16.77;;;;;;;4.25;100.00;102744.56;4989196;28;20042;-61
2022/01/18 01:09:37;;;;;;;33.53;15.75;;;;;;;4.29;100.00;102751.56;4989911;28;20795;-61
2022/01/18 01:12:04;;;;;;;24.90;14.15;;;;;;;4.23;100.00;102738.44;4988276;28;20038;-61
2022/01/18 01:14:30;;;;;;;29.38;11.40;;;;;;;4.31;100.00;102737.69;4990541;28;20034;-61
2022/01/18 01:19:51;;;;;;;38.08;14.57;;;;;;;4.34;100.00;102732.53;4988586;28;20073;-61
2022/01/18 01:43:23;;;;;;;32.58;14.40;;;;;;;4.68;100.00;102759.84;4988058;28;20044;-61
2022/01/18 01:45:51;;;;;;;24.10;11.68;;;;;;;4.46;100.00;102724.88;4986885;28;20069;-61
2022/01/18 01:48:18;;;;;;;33.92;16.05;;;;;;;4.69;100.00;102743.38;4988277;28;20034;-61
2022/01/18 01:53:10;;;;;;;41.30;18.95;;;;;;;4.84;100.00;102747.88;4990936;28;20037;-61
2022/01/18 01:55:35;;;;;;;31.90;17.00;;;;;;;4.83;100.00;102741.81;4991354;28;20088;-61
2022/01/18 01:58:01;;;;;;;44.08;19.55;;;;;;;4.92;100.00;102757.53;4989370;28;20033;-61
2022/01/18 02:00:26;;;;;;;39.78;19.33;;;;;;;4.80;100.00;102739.16;4989210;28;20030;-61
2022/01/18 02:02:51;;;;;;;31.63;17.38;;;;;;;4.94;100.00;102753.22;4988306;28;20038;-61
2022/01/18 02:05:17;;;;;;;29.75;16.40;;;;;;;4.88;100.00;102740.13;4984552;28;20040;-61
2022/01/18 02:07:42;;;;;;;33.55;18.23;;;;;;;4.92;100.00;102752.34;4986966;28;20065;-61
2022/01/18 02:10:09;;;;;;;27.98;16.67;;;;;;;4.95;100.00;102751.47;4985895;28;20037;-61
2022/01/18 02:12:35;;;;;;;38.70;19.77;;;;;;;4.97;100.00;102750.63;4986448;28;20063;-61
2022/01/18 02:15:10;;;;;;;43.67;18.42;;;;;;;4.31;100.00;102624.94;4986342;28;20148;-61
2022/01/18 02:23:15;;;;;;;44.42;21.20;;;;;;;4.98;100.00;102734.16;4988465;28;20048;-61
2022/01/18 02:25:41;;;;;;;48.63;20.85;;;;;;;5.00;100.00;102734.19;4988852;28;20518;-61
2022/01/18 02:28:06;;;;;;;38.58;19.92;;;;;;;5.03;100.00;102734.22;4988023;28;20457;-61
2022/01/18 02:30:32;;;;;;;29.92;18.23;;;;;;;5.04;100.00;102742.03;4988109;28;20025;-61
2022/01/18 02:32:57;;;;;;;36.65;18.63;;;;;;;5.04;100.00;102734.22;4987735;28;20117;-62
2022/01/18 02:35:23;;;;;;;31.65;18.35;;;;;;;5.00;100.00;102735.03;4985535;28;20034;-62
2022/01/18 02:37:52;;;;;;;36.20;20.23;;;;;;;4.71;100.00;102689.59;4984782;28;20323;-61
2022/01/18 02:40:17;;;;;;;40.83;19.63;;;;;;;4.98;100.00;102730.66;4985943;28;20877;-62
2022/01/18 02:42:54;;;;;;;42.00;21.67;;;;;;;5.03;100.00;102740.31;4987966;28;20037;-61
2022/01/18 02:45:20;;;;;;;43.78;21.98;;;;;;;4.99;100.00;102733.31;4988883;28;20069;-62
2022/01/18 02:47:46;;;;;;;31.00;19.77;;;;;;;5.04;100.00;102749.84;4987730;28;20684;-61
2022/01/18 02:50:11;;;;;;;39.08;20.77;;;;;;;5.03;100.00;102742.03;4986356;28;20022;-61
2022/01/18 02:52:36;;;;;;;36.00;20.05;;;;;;;5.00;100.00;102727.22;4988747;28;20435;-61
2022/01/18 02:55:02;;;;;;;31.30;19.83;;;;;;;5.08;100.00;102736.00;4989225;28;20029;-61
2022/01/18 02:57:28;;;;;;;36.00;18.80;;;;;;;5.01;100.00;102715.94;4988557;28;20053;-61
2022/01/18 03:05:21;;;;;;;34.15;18.55;;;;;;;4.98;100.00;102715.91;4990369;28;20549;-61
2022/01/18 03:07:47;;;;;;;34.30;18.58;;;;;;;4.93;100.00;102722.81;4992143;28;20026;-61
2022/01/18 03:10:14;;;;;;;39.53;20.85;;;;;;;4.62;100.00;102672.16;4990585;28;20042;-61
2022/01/18 03:12:40;;;;;;;40.92;20.60;;;;;;;5.03;100.00;102726.41;4989167;28;20123;-61
2022/01/18 03:15:06;;;;;;;34.33;20.55;;;;;;;5.06;100.00;102734.25;4992866;28;20928;-61
2022/01/18 03:17:32;;;;;;;39.30;19.45;;;;;;;5.05;100.00;102735.09;4990649;28;20428;-61
2022/01/18 03:19:57;;;;;;;49.00;21.25;;;;;;;5.00;100.00;102734.19;4993344;28;20037;-61
2022/01/18 03:22:23;;;;;;;36.65;20.85;;;;;;;5.06;100.00;102744.66;4992650;28;20029;-61
2022/01/18 03:25:13;;;;;;;35.53;19.98;;;;;;;5.04;100.00;102747.22;4992154;28;20476;-61
2022/01/18 03:30:41;;;;;;;43.65;21.48;;;;;;;4.98;100.00;102741.97;4979079;28;20038;-61
2022/01/18 03:33:13;;;;;;;50.38;23.33;;;;;;;5.00;100.00;102744.59;4992243;28;20897;-61
2022/01/18 03:35:40;;;;;;;36.72;19.73;;;;;;;5.00;100.00;102737.63;4989705;28;20048;-61
2022/01/18 03:38:06;;;;;;;41.78;23.83;;;;;;;5.01;100.00;102747.22;4990276;28;20039;-61
2022/01/18 03:40:31;;;;;;;38.47;20.98;;;;;;;5.01;100.00;102749.81;4991563;28;20033;-61
2022/01/18 03:42:58;;;;;;;36.95;20.23;;;;;;;5.00;100.00;102755.88;4993444;28;20088;-61
2022/01/18 03:45:32;;;;;;;35.97;21.10;;;;;;;4.98;100.00;102752.38;4993673;28;20038;-61
2022/01/18 03:48:02;;;;;;;32.17;20.75;;;;;;;4.96;100.00;102743.69;4993574;28;20034;-61
2022/01/18 03:50:27;;;;;;;36.88;21.25;;;;;;;4.97;100.00;102737.59;4990964;28;20034;-61
2022/01/18 03:52:53;;;;;;;32.95;21.63;;;;;;;5.01;100.00;102742.00;4993245;28;20744;-61
2022/01/18 03:55:21;;;;;;;44.78;21.05;;;;;;;5.03;100.00;102739.41;4990813;28;20836;-61
2022/01/18 03:57:47;;;;;;;39.50;19.10;;;;;;;4.99;100.00;102738.50;4981560;28;20863;-60
2022/01/18 04:00:22;;;;;;;35.53;18.65;;;;;;;4.89;100.00;102739.28;4969051;28;20030;-60
2022/01/18 04:02:48;;;;;;;35.58;21.25;;;;;;;4.95;100.00;102749.75;4968020;28;20140;-60
2022/01/18 04:05:14;;;;;;;32.67;19.88;;;;;;;4.47;100.00;102664.16;4968136;28;20069;-61
2022/01/18 04:07:40;;;;;;;39.97;19.98;;;;;;;4.96;100.00;102748.03;4969034;28;20036;-62
2022/01/18 04:10:06;;;;;;;39.95;22.20;;;;;;;4.96;100.00;102754.13;4967835;28;20096;-61
2022/01/18 04:12:34;;;;;;;42.60;24.05;;;;;;;4.95;100.00;102749.75;4969629;28;20139;-61
2022/01/18 04:15:00;;;;;;;35.85;19.65;;;;;;;4.95;100.00;102747.16;4969882;28;20025;-61
2022/01/18 04:28:18;;;;;;;38.30;21.38;;;;;;;4.82;100.00;102750.47;4969914;28;20121;-61
2022/01/18 04:30:43;;;;;;;35.50;20.23;;;;;;;4.80;100.00;102746.97;4969408;28;20080;-61
2022/01/18 04:33:09;;;;;;;37.03;20.35;;;;;;;4.79;100.00;102749.56;4968518;28;21042;-61
2022/01/18 04:35:34;;;;;;;46.13;23.58;;;;;;;4.95;100.00;102761.91;4984876;28;20904;-61
2022/01/18 04:38:00;;;;;;;45.58;22.80;;;;;;;4.87;100.00;102754.00;4991945;28;20825;-61
2022/01/18 04:40:30;;;;;;;37.67;20.85;;;;;;;4.91;100.00;102761.00;4988924;28;20863;-61
2022/01/18 04:50:52;;;;;;;;;;;;;;;4.94;100.00;102768.84;4991684;28;20541;-61
2022/01/18 04:53:17;;;;;;;38.38;22.67;;;;;;;4.95;100.00;102762.78;4992008;28;19921;-61
2022/01/18 04:55:43;;;;;;;53.15;23.85;;;;;;;4.93;100.00;102761.91;4993158;28;20467;-61
2022/01/18 04:58:08;;;;;;;50.08;23.80;;;;;;;4.93;100.00;102764.50;4993257;28;20883;-61
2022/01/18 05:00:34;;;;;;;36.70;21.95;;;;;;;4.15;100.00;102629.09;4992854;28;20041;-61
2022/01/18 05:02:59;;;;;;;40.40;22.42;;;;;;;4.96;100.00;102769.75;4991728;28;20128;-61
2022/01/18 05:05:31;;;;;;;31.35;21.02;;;;;;;4.87;100.00;102753.13;4990886;28;20034;-61
2022/01/18 05:08:02;;;;;;;46.72;22.60;;;;;;;4.98;100.00;102777.56;4991477;28;20040;-61
2022/01/18 05:10:29;;;;;;;38.08;22.33;;;;;;;5.01;100.00;102775.88;4992707;28;20210;-61
2022/01/18 05:12:57;;;;;;;45.35;23.48;;;;;;;5.04;100.00;102775.00;4992266;28;20034;-61
2022/01/18 05:23:08;;;;;;;28.33;20.10;;;;;;;4.87;100.00;102759.19;4992170;28;20444;-61
2022/01/18 05:25:34;;;;;;;39.92;21.58;;;;;;;4.96;100.00;102774.06;4991471;28;20041;-61
2022/01/18 05:28:01;;;;;;;35.90;23.98;;;;;;;4.91;100.00;102775.75;4994048;28;20088;-61
2022/01/18 05:30:27;;;;;;;37.47;22.23;;;;;;;4.91;100.00;102780.94;4992040;28;20029;-61
2022/01/18 05:32:53;;;;;;;36.75;22.27;;;;;;;4.95;100.00;102777.53;4991571;28;20040;-61
2022/01/18 05:35:19;;;;;;;41.80;22.92;;;;;;;5.00;100.00;102775.88;4989393;28;20551;-60
2022/01/18 05:37:48;;;;;;;38.15;22.65;;;;;;;4.96;100.00;102767.13;4991490;28;20088;-61
2022/01/18 05:40:15;;;;;;;36.92;22.42;;;;;;;4.94;100.00;102766.22;4992147;28;20142;-61
2022/01/18 05:42:40;;;;;;;36.67;22.10;;;;;;;4.95;100.00;102770.59;4988792;28;20120;-61
2022/01/18 05:45:06;;;;;;;39.90;22.17;;;;;;;4.94;100.00;102774.03;4988765;28;20542;-61
2022/01/18 05:47:33;;;;;;;42.30;22.13;;;;;;;4.92;100.00;102782.72;4990246;28;20044;-61
2022/01/18 05:49:58;;;;;;;34.53;21.73;;;;;;;4.93;100.00;102782.75;4992626;28;20092;-61
2022/01/18 05:52:24;;;;;;;45.83;23.25;;;;;;;4.93;100.00;102774.94;4992965;28;20840;-61
2022/01/18 05:54:49;;;;;;;50.88;24.50;;;;;;;4.95;100.00;102786.22;4991497;28;20873;-61
2022/01/18 05:57:14;;;;;;;50.95;23.45;;;;;;;4.92;100.00;102782.72;4989480;28;20869;-61
2022/01/18 05:59:44;;;;;;;52.80;25.80;;;;;;;4.92;100.00;102778.38;4989863;28;20022;-61
2022/01/18 06:02:33;;;;;;;48.28;26.10;;;;;;;4.95;100.00;102788.81;4988073;28;20050;-61
2022/01/18 06:07:43;;;;;;;44.55;24.70;;;;;;;4.96;100.00;102792.31;4989780;28;20399;-61
2022/01/18 06:10:10;;;;;;;45.00;27.20;;;;;;;4.96;100.00;102790.59;4989325;28;20200;-61
2022/01/18 06:12:35;;;;;;;58.90;30.83;;;;;;;4.88;100.00;102784.41;4989644;28;20495;-62
2022/01/18 06:15:00;;;;;;;69.43;29.48;;;;;;;4.61;100.00;102750.22;4989551;28;20061;-61
2022/01/18 06:17:26;;;;;;;50.25;28.45;;;;;;;4.99;100.00;102802.75;4990411;28;20847;-61
2022/01/18 06:19:51;;;;;;;46.17;28.70;;;;;;;4.87;100.00;102784.38;4989809;28;20885;-61
2022/01/18 06:22:17;;;;;;;42.03;26.65;;;;;;;4.71;100.00;102762.50;4990468;28;20068;-61
2022/01/18 06:24:43;;;;;;;40.95;25.55;;;;;;;4.94;100.00;102792.28;4991076;28;20034;-61
2022/01/18 06:27:08;;;;;;;50.75;27.83;;;;;;;4.92;100.00;102790.53;4991447;28;20030;-61
2022/01/18 06:29:34;;;;;;;50.35;29.23;;;;;;;4.92;100.00;102785.31;4992133;28;20192;-61
2022/01/18 06:32:00;;;;;;;65.15;30.23;;;;;;;4.89;100.00;102793.97;4994459;28;20219;-61
2022/01/18 06:34:25;;;;;;;51.28;31.10;;;;;;;4.87;100.00;102790.47;4989956;28;20895;-61
2022/01/18 06:36:51;;;;;;;58.58;30.88;;;;;;;4.71;100.00;102766.81;4991682;28;20118;-61
2022/01/18 06:39:17;;;;;;;50.90;29.27;;;;;;;4.13;100.00;102673.28;4991422;28;20582;-61
2022/01/18 06:41:43;;;;;;;48.30;28.35;;;;;;;4.84;100.00;102789.53;4989004;28;20567;-61
2022/01/18 06:44:09;;;;;;;56.42;30.38;;;;;;;4.84;100.00;102790.44;4991925;28;20068;-62
2022/01/18 06:46:34;;;;;;;52.20;29.10;;;;;;;4.79;100.00;102786.91;4991744;28;20029;-61
2022/01/18 06:48:59;;;;;;;52.03;29.38;;;;;;;4.84;100.00;102793.03;4970947;28;20085;-62
2022/01/18 06:51:25;;;;;;;54.45;28.88;;;;;;;4.83;100.00;102800.84;4991005;28;20034;-61
2022/01/18 06:53:50;;;;;;;38.35;26.77;;;;;;;4.71;100.00;102783.31;4994168;28;20055;-61
2022/01/18 06:56:18;;;;;;;53.78;29.42;;;;;;;4.54;100.00;102764.00;4977455;28;20034;-61
2022/01/18 06:58:44;;;;;;;50.42;29.17;;;;;;;4.75;100.00;102805.06;4992569;28;20117;-61
2022/01/18 07:01:11;;;;;;;43.97;28.02;;;;;;;4.75;100.00;102803.34;4993359;28;20476;-61
2022/01/18 07:03:37;;;;;;;56.35;29.05;;;;;;;4.59;100.00;102777.97;4991738;28;20036;-61
2022/01/18 07:06:03;;;;;;;42.65;27.55;;;;;;;4.70;100.00;102812.81;4978271;28;20062;-61
2022/01/18 07:08:28;;;;;;;44.42;28.13;;;;;;;4.55;100.00;102787.47;4989764;28;20563;-61
2022/01/18 07:10:54;;;;;;;47.20;27.90;;;;;;;4.34;100.00;102752.47;4990652;28;20045;-61
2022/01/18 07:13:19;;;;;;;40.22;26.27;;;;;;;4.63;100.00;102803.16;4992443;28;20457;-61
2022/01/18 07:15:45;;;;;;;40.33;25.75;;;;;;;4.22;100.00;102729.78;4993687;28;20881;-61
2022/01/18 07:18:10;;;;;;;61.45;31.20;;;;;;;4.71;100.00;102813.69;4997583;28;20106;-61
2022/01/18 07:20:41;;;;;;;45.03;30.13;;;;;;;4.49;100.00;102769.19;4997139;28;20472;-61
2022/01/18 07:23:08;;;;;;;47.88;31.75;;;;;;;4.63;100.00;102790.16;4998392;28;20557;-61
2022/01/18 07:25:33;;;;;;;44.85;26.98;;;;;;;4.75;100.00;102805.94;4997461;28;20041;-62
2022/01/18 07:27:59;;;;;;;47.72;27.58;;;;;;;4.24;100.00;102716.78;4996521;28;20240;-61
2022/01/18 07:30:24;;;;;;;46.13;29.75;;;;;;;4.77;100.00;102817.25;4993694;28;20030;-61
2022/01/18 07:32:50;;;;;;;45.72;29.90;;;;;;;4.22;100.00;102714.16;4993181;28;20895;-61
2022/01/18 07:35:16;;;;;;;49.60;27.30;;;;;;;4.65;100.00;102796.28;4993137;28;20463;-62
2022/01/18 07:37:41;;;;;;;48.40;28.77;;;;;;;4.58;100.00;102784.03;4990672;28;20040;-61
2022/01/18 07:40:07;;;;;;;52.40;28.17;;;;;;;4.74;100.00;102809.41;4965620;28;20036;-61
2022/01/18 07:42:33;;;;;;;41.63;26.55;;;;;;;4.70;100.00;102801.56;4964907;28;20036;-61
2022/01/18 07:44:58;;;;;;;41.95;26.90;;;;;;;4.72;100.00;102807.63;4967666;28;20025;-61
2022/01/18 07:47:24;;;;;;;46.55;27.08;;;;;;;4.69;100.00;102805.00;4968528;28;20788;-61
2022/01/18 07:49:49;;;;;;;43.55;28.55;;;;;;;4.72;100.00;102802.44;4968590;28;20075;-60
2022/01/18 07:52:18;;;;;;;50.75;27.95;;;;;;;4.79;100.00;102815.56;4968279;28;20257;-61
2022/01/18 07:54:44;;;;;;;52.92;29.00;;;;;;;4.36;100.00;102735.16;4969971;28;20030;-61
2022/01/18 07:57:11;;;;;;;36.35;23.60;;;;;;;4.80;100.00;102814.69;4970777;28;20208;-61
2022/01/18 07:59:37;;;;;;;50.25;30.23;;;;;;;4.60;100.00;102769.28;4970706;28;20030;-61
2022/01/18 08:02:02;;;;;;;43.72;27.52;;;;;;;4.79;100.00;102799.94;4972859;28;20382;-61
2022/01/18 08:04:28;;;;;;;41.30;27.02;;;;;;;4.81;100.00;102803.41;4969765;28;20885;-62
2022/01/18 08:06:53;;;;;;;42.33;27.52;;;;;;;4.70;100.00;102786.78;4970724;28;20069;-61
2022/01/18 08:09:19;;;;;;;44.40;26.77;;;;;;;4.90;100.00;102821.75;4972695;28;20036;-62
2022/01/18 08:11:48;;;;;;;42.60;27.67;;;;;;;4.90;100.00;102826.97;4970306;28;20037;-62
2022/01/18 08:14:16;;;;;;;47.95;27.27;;;;;;;4.95;100.00;102830.50;4970669;28;20030;-61
2022/01/18 08:16:48;;;;;;;43.63;28.80;;;;;;;4.98;100.00;102825.34;4970055;28;20026;-61
2022/01/18 08:19:14;;;;;;;43.58;28.20;;;;;;;5.05;100.00;102827.16;4971345;28;20141;-61
2022/01/18 08:21:40;;;;;;;44.35;28.83;;;;;;;4.98;100.00;102814.91;4971358;28;20026;-61
2022/01/18 08:24:05;;;;;;;34.40;25.80;;;;;;;4.82;100.00;102780.84;4969957;28;20084;-61
2022/01/18 08:26:30;;;;;;;45.60;27.40;;;;;;;5.18;100.00;102827.28;4969804;28;20135;-62
2022/01/18 08:28:56;;;;;;;40.08;27.20;;;;;;;5.19;100.00;102814.28;4966938;28;20367;-62
2022/01/18 08:31:21;;;;;;;43.00;26.80;;;;;;;5.22;100.00;102813.44;4969932;28;20034;-62
2022/01/18 08:33:47;;;;;;;39.25;24.00;;;;;;;5.27;100.00;102811.75;4969824;28;20139;-60
2022/01/18 08:36:12;;;;;;;47.00;26.08;;;;;;;5.29;100.00;102810.91;4971292;28;20026;-61
2022/01/18 08:38:39;;;;;;;47.92;24.40;;;;;;;5.38;100.00;102825.75;4969312;28;20822;-61
2022/01/18 08:41:05;;;;;;;38.25;26.08;;;;;;;5.44;100.00;102820.63;4969444;28;20100;-61
2022/01/18 08:43:31;;;;;;;49.85;25.80;;;;;;;5.52;100.00;102816.34;4968374;28;20022;-61
2022/01/18 08:46:01;;;;;;;44.03;24.02;;;;;;;5.60;100.00;102827.72;4968433;28;20149;-61
2022/01/18 08:48:27;;;;;;;47.83;25.80;;;;;;;5.34;100.00;102764.06;4968748;28;20022;-61
2022/01/18 08:50:52;;;;;;;50.40;26.50;;;;;;;5.73;100.00;102824.38;4970218;28;20355;-61
2022/01/18 08:53:17;;;;;;;46.22;25.10;;;;;;;5.63;100.00;102801.69;4968694;28;20193;-61
2022/01/18 08:55:43;;;;;;;48.97;23.17;;;;;;;5.84;100.00;102829.69;4967811;28;20034;-61
2022/01/18 08:58:09;;;;;;;54.20;23.50;;;;;;;5.32;100.00;102737.06;4969000;28;20045;-61
2022/01/18 09:00:35;;;;;;;42.05;21.50;;;;;;;5.88;100.00;102831.50;4969075;28;20038;-61
2022/01/18 09:03:02;;;;;;;36.97;20.75;;;;;;;5.91;100.00;102829.78;4969198;28;20088;-61
2022/01/18 09:05:27;;;;;;;46.03;22.17;;;;;;;5.80;100.00;102805.31;4969948;28;20100;-60
2022/01/18 09:07:53;;;;;;;41.13;22.02;;;;;;;6.02;100.00;102837.66;4969016;28;20030;-61
2022/01/18 09:10:23;;;;;;;41.60;21.52;;;;;;;6.04;100.00;102835.97;4972482;28;20137;-68
2022/01/18 09:12:48;;;;;;;30.80;20.10;;;;;;;6.08;100.00;102822.94;4985178;28;20032;-62
2022/01/18 09:15:14;;;;;;;36.70;22.58;;;;;;;6.10;100.00;102829.06;4976082;28;20140;-62
2022/01/18 09:17:40;;;;;;;38.33;22.13;;;;;;;5.82;100.00;102777.47;4984310;28;20033;-62
2022/01/18 09:20:08;;;;;;;49.47;22.58;;;;;;;6.23;100.00;102835.22;4983354;28;20025;-63
2022/01/18 09:22:39;;;;;;;36.42;21.70;;;;;;;6.30;100.00;102837.03;4980138;28;20900;-61
2022/01/18 09:25:08;;;;;;;37.70;22.63;;;;;;;6.26;100.00;102823.94;4980714;28;20037;-61
2022/01/18 09:27:33;;;;;;;38.47;20.02;;;;;;;6.30;100.00;102820.47;4981286;28;20061;-61
2022/01/18 09:29:59;;;;;;;57.47;20.17;;;;;;;6.49;100.00;102840.63;4972010;28;20046;-62
2022/01/18 09:32:24;;;;;;;32.78;18.13;;;;;;;6.43;100.00;102811.84;4966770;28;20029;-62
2022/01/18 09:34:50;;;;;;;49.15;19.40;;;;;;;6.68;100.00;102839.88;4968686;28;20062;-62
2022/01/18 09:37:16;;;;;;;34.40;16.45;;;;;;;6.71;100.00;102837.25;4973548;28;20030;-62
2022/01/18 09:39:42;;;;;;;29.80;15.93;;;;;;;5.83;100.00;102680.09;4986539;28;21702;-62
2022/01/18 09:42:11;;;;;;;33.20;16.85;;;;;;;6.73;100.00;102835.50;5004932;28;20479;-62
2022/01/18 09:44:37;;;;;;;35.05;17.27;;;;;;;6.68;100.00;102832.91;4958522;28;20035;-62
2022/01/18 09:47:05;;;;;;;27.33;15.60;;;;;;;6.57;100.00;102815.41;4985307;28;20056;-62
2022/01/18 09:49:32;;;;;;;22.75;14.68;;;;;;;6.68;100.00;102816.34;4985387;28;20029;-62
2022/01/18 09:51:58;;;;;;;25.15;15.02;;;;;;;6.38;100.00;102758.75;4981598;28;20088;-62
2022/01/18 09:54:23;;;;;;;34.17;17.10;;;;;;;7.02;100.00;102833.91;4983968;28;20034;-62
2022/01/18 09:56:49;;;;;;;27.33;14.63;;;;;;;7.03;100.00;102830.41;4985337;28;20034;-62
2022/01/18 09:59:14;;;;;;;28.55;13.93;;;;;;;7.18;100.00;102835.72;4985287;28;20030;-62
2022/01/18 10:01:39;;;;;;;28.08;14.68;;;;;;;7.06;100.00;102806.91;4987914;28;20068;-62
2022/01/18 10:04:26;;;;;;;29.40;13.10;;;;;;;7.14;100.00;102823.50;4987182;28;20040;-62
2022/01/18 10:06:54;;;;;;;29.05;14.38;;;;;;;7.25;100.00;102851.41;4986397;28;20040;-62
2022/01/18 10:09:20;;;;;;;23.63;13.60;;;;;;;7.19;100.00;102834.84;4984005;28;20769;-62
2022/01/18 10:12:05;;;;;;;27.20;12.00;;;;;;;7.28;100.00;102856.66;4985628;28;20030;-62
2022/01/18 10:14:31;;;;;;;30.60;13.38;;;;;;;6.68;100.00;102749.31;4987244;28;20061;-62
2022/01/18 10:16:56;;;;;;;31.90;14.48;;;;;;;7.38;100.00;102848.84;4986017;28;20068;-62
2022/01/18 10:19:33;;;;;;;25.17;12.43;;;;;;;7.43;100.00;102835.78;4985864;28;20029;-62
2022/01/18 10:22:34;;;;;;;22.98;12.82;;;;;;;7.54;100.00;102845.38;4988051;28;20037;-64
2022/01/18 10:25:12;;;;;;;31.80;13.50;;;;;;;7.68;100.00;102832.31;4970257;28;20051;-61
2022/01/18 10:27:37;;;;;;;27.85;13.30;;;;;;;7.81;100.00;102834.06;4967206;28;20034;-61
2022/01/18 10:30:06;;;;;;;29.83;12.50;;;;;;;7.94;100.00;102841.03;4969563;28;20377;-61
2022/01/18 10:32:38;;;;;;;24.73;11.95;;;;;;;7.48;100.00;102730.28;4973661;28;20136;-63
2022/01/18 10:35:09;;;;;;;23.63;11.93;;;;;;;8.31;100.00;102841.06;4988205;28;20049;-60
2022/01/18 10:37:38;;;;;;;16.45;11.10;;;;;;;8.31;100.00;102821.00;4987587;28;20639;-60
2022/01/18 10:40:13;;;;;;;27.83;12.50;;;;;;;8.45;100.00;102834.06;4988808;28;20346;-60
2022/01/18 10:42:51;;;;;;;22.90;10.60;;;;;;;8.57;100.00;102834.00;4991964;28;20038;-64
2022/01/18 10:45:27;;;;;;;18.23;9.75;;;;;;;8.60;100.00;102836.63;5000236;28;20380;-60
2022/01/18 10:47:59;;;;;;;24.60;10.90;;;;;;;8.65;100.00;102843.59;4983291;28;20553;-62
2022/01/18 10:50:29;;;;;;;18.45;9.57;;;;;;;8.77;100.00;102839.19;4981164;28;20923;-62
2022/01/18 10:53:19;;;;;;;19.98;9.68;;;;;;;8.76;100.00;102825.19;4981833;28;20523;-62
2022/01/18 10:55:47;;;;;;;21.40;10.98;;;;;;;8.80;100.00;102826.94;4981507;28;20045;-63
2022/01/18 10:58:21;;;;;;;18.20;8.82;;;;;;;8.66;100.00;102803.41;4982757;28;20055;-61
2022/01/18 11:00:48;;;;;;;22.52;10.18;;;;;;;8.82;100.00;102817.31;4979493;28;20388;-62
2022/01/18 11:03:14;;;;;;;21.33;8.63;;;;;;;8.76;100.00;102788.50;4979531;28;20030;-62
2022/01/18 11:05:42;;;;;;;17.13;9.52;;;;;;;8.33;100.00;102692.63;4980651;28;20077;-62
2022/01/18 11:08:07;;;;;;;18.58;8.57;;;;;;;8.96;100.00;102798.91;4977555;28;20034;-62
2022/01/18 11:10:37;;;;;;;16.35;8.38;;;;;;;8.61;100.00;102737.06;4975580;28;20034;-63
2022/01/18 11:13:07;;;;;;;21.60;8.48;;;;;;;8.93;100.00;102785.81;4974857;28;20042;-62
2022/01/18 11:15:36;;;;;;;22.35;7.65;;;;;;;8.67;100.00;102749.25;4970520;28;20034;-61
2022/01/18 11:18:06;;;;;;;15.10;8.27;;;;;;;8.85;100.00;102751.78;4976116;28;20117;-62
2022/01/18 11:20:36;;;;;;;14.93;7.63;;;;;;;9.23;100.00;102788.25;4981020;28;20496;-62
2022/01/18 11:23:06;;;;;;;21.05;8.02;;;;;;;8.72;100.00;102695.03;4983668;28;20381;-61
2022/01/18 11:25:33;;;;;;;13.02;7.68;;;;;;;8.99;100.00;102728.97;4981680;28;20831;-62
2022/01/18 11:27:59;;;;;;;18.70;8.50;;;;;;;9.56;100.00;102789.81;4980217;28;20049;-62
2022/01/18 11:30:31;;;;;;;21.60;7.57;;;;;;;9.62;100.00;102792.38;4980187;28;20761;-62
2022/01/18 11:32:57;;;;;;;21.88;8.35;;;;;;;9.65;100.00;102790.59;4979934;28;20041;-62
2022/01/18 11:35:31;;;;;;;19.88;8.20;;;;;;;9.49;100.00;102783.72;4980245;28;20037;-62
2022/01/18 11:38:09;;;;;;;18.45;7.63;;;;;;;9.47;100.00;102790.72;4978860;28;20475;-62
2022/01/18 11:40:47;;;;;;;13.68;7.28;;;;;;;9.34;100.00;102788.19;4981080;28;20050;-62
2022/01/18 11:43:14;;;;;;;16.75;7.00;;;;;;;9.22;100.00;102776.91;4983728;28;20888;-62
2022/01/18 11:45:44;;;;;;;17.75;7.05;;;;;;;9.18;100.00;102772.56;4981210;28;20030;-62
2022/01/18 11:48:15;;;;;;;25.48;8.15;;;;;;;9.20;100.00;102785.66;4985604;28;20109;-62
2022/01/18 11:51:01;;;;;;;18.13;8.05;;;;;;;9.19;100.00;102774.28;4983395;28;20030;-63
2022/01/18 11:54:18;;;;;;;18.73;8.30;;;;;;;9.34;100.00;102772.44;4983190;28;20042;-62
2022/01/18 11:56:37;;;;;;;17.85;7.75;;;;;;;9.57;100.00;102771.41;4984846;28;20038;-62
2022/01/18 11:59:28;;;;;;;13.82;6.82;;;;;;;9.71;100.00;102763.41;4985620;28;20030;-62
2022/01/18 12:01:59;;;;;;;19.77;6.28;;;;;;;9.67;100.00;102744.19;4982882;28;20069;-62
2022/01/18 12:07:07;;;;;;;15.65;6.95;;;;;;;9.72;100.00;102746.78;4980886;28;20054;-63
2022/01/18 12:09:42;;;;;;;17.75;6.25;;;;;;;9.35;100.00;102690.25;4980210;28;20125;-63
2022/01/18 12:12:40;;;;;;;12.95;6.43;;;;;;;9.58;100.00;102762.66;4981429;28;20043;-62
2022/01/18 12:15:29;;;;;;;14.70;5.45;;;;;;;9.55;100.00;102736.44;4981428;28;20078;-62
2022/01/18 12:18:02;;;;;;;12.13;4.88;;;;;;;9.65;100.00;102756.47;4993859;28;20054;-62
2022/01/18 12:20:46;;;;;;;21.20;6.10;;;;;;;9.65;100.00;102759.09;5004718;28;20125;-62
2022/01/18 12:23:17;;;;;;;18.05;6.22;;;;;;;9.65;100.00;102758.22;5006491;28;20040;-62
2022/01/18 12:31:53;;;;;;;18.00;6.22;;;;;;;9.28;100.00;102743.63;5002709;28;20042;-64
2022/01/18 12:34:30;;;;;;;12.30;4.85;;;;;;;9.13;100.00;102741.97;5006250;28;20048;-62
2022/01/18 12:37:08;;;;;;;16.58;4.35;;;;;;;9.15;100.00;102735.00;5009089;28;20527;-63